Time;durP1;ratioP1;P1;durP2;ratioP2;P2;SDS_P1;SDS_P2;PMS_P1;PMS_P2;Temp;Humidity;BMP_temperature;BMP_pressure;BME280_temperature;BME280_humidity;BME280_pressure;Samples;Min_cycle;Max_cycle;Signal;HPM_P1;HPM_P2
2023/03/23 00:00:23;;;;;;;;;;;;;;;21.78;26.49;97872.47;5008842;28;1446;-76
2023/03/23 00:02:48;;;;;;;;;;;;;;;21.74;26.50;97871.78;5018917;28;1910;-75
2023/03/23 00:05:14;;;;;;;;;;;;;;;21.98;26.21;97880.00;5001453;28;928;-76
2023/03/23 00:07:45;;;;;;;;;;;;;;;22.16;26.15;97874.59;5018108;28;1261;-76
2023/03/23 00:10:10;;;;;;;;;;;;;;;22.15;26.02;97877.91;5001211;28;966;-76
2023/03/23 00:12:36;;;;;;;;;;;;;;;21.78;26.59;97877.34;5018942;28;1061;-76
2023/03/23 00:15:02;;;;;;;;;;;;;;;21.68;26.54;97879.25;5001549;28;967;-76
2023/03/23 00:17:28;;;;;;;;;;;;;;;21.73;26.83;97870.19;5001179;28;894;-76
2023/03/23 00:19:53;;;;;;;;;;;;;;;22.12;26.13;97878.78;5018665;28;917;-75
2023/03/23 00:22:21;;;;;;;;;;;;;;;22.31;25.75;97870.09;5000052;28;1325;-75
2023/03/23 00:24:47;;;;;;;;;;;;;;;22.03;25.93;97873.78;4985060;28;1911;-76
2023/03/23 00:27:14;;;;;;;;;;;;;;;21.62;26.90;97864.06;4976536;28;969;-76
2023/03/23 00:29:41;;;;;;;;;;;;;;;21.29;27.37;97864.13;4976982;28;1104;-76
2023/03/23 00:32:12;;;;;;;;;;;;;;;21.65;26.77;97860.31;4960810;28;1003;-75
2023/03/23 00:34:38;;;;;;;;;;;;;;;21.80;26.45;97863.53;4954015;29;1506;-75
2023/03/23 00:37:03;;;;;;;;;;;;;;;21.97;26.28;97855.75;4936661;29;1378;-75
2023/03/23 00:39:29;;;;;;;;;;;;;;;21.96;26.24;97851.31;4919532;29;965;-76
2023/03/23 00:42:00;;;;;;;;;;;;;;;21.64;26.80;97858.72;4919500;29;926;-77
2023/03/23 00:44:30;;;;;;;;;;;;;;;21.49;27.03;97855.50;4934161;29;1915;-76
2023/03/23 00:46:56;;;;;;;;;;;;;;;21.77;26.63;97853.91;4903228;29;1162;-75
2023/03/23 00:49:24;;;;;;;;;;;;;;;21.90;26.45;97861.63;4935250;29;1171;-75
2023/03/23 00:51:50;;;;;;;;;;;;;;;22.45;25.57;97862.38;4918788;29;1708;-76
2023/03/23 00:54:15;;;;;;;;;;;;;;;22.28;25.99;97854.00;4918922;29;1096;-75
2023/03/23 00:56:41;;;;;;;;;;;;;;;21.83;26.29;97852.09;4927386;29;1274;-76
2023/03/23 00:59:06;;;;;;;;;;;;;;;21.70;26.79;97851.28;4938481;28;1268;-75
2023/03/23 01:01:32;;;;;;;;;;;;;;;21.51;26.98;97847.38;4956947;28;1135;-76
2023/03/23 01:04:00;;;;;;;;;;;;;;;22.03;26.35;97854.75;4975830;28;1981;-75
2023/03/23 01:06:30;;;;;;;;;;;;;;;22.10;26.50;97853.72;4964266;28;1259;-76
2023/03/23 01:08:56;;;;;;;;;;;;;;;22.23;26.16;97851.72;4979758;28;1262;-76
2023/03/23 01:11:24;;;;;;;;;;;;;;;21.92;26.25;97847.81;4980368;28;1357;-76
2023/03/23 01:13:50;;;;;;;;;;;;;;;21.75;26.50;97847.09;4980707;28;1112;-76
2023/03/23 01:16:15;;;;;;;;;;;;;;;21.60;26.92;97849.53;4975960;28;1268;-76
2023/03/23 01:18:41;;;;;;;;;;;;;;;21.90;26.75;97844.63;4959376;28;1391;-75
2023/03/23 01:21:07;;;;;;;;;;;;;;;22.04;26.56;97847.03;4975910;28;1142;-76
2023/03/23 01:23:33;;;;;;;;;;;;;;;22.27;26.12;97852.38;4975958;28;1969;-76
2023/03/23 01:26:03;;;;;;;;;;;;;;;21.80;26.47;97844.50;4959754;28;1353;-76
2023/03/23 01:28:28;;;;;;;;;;;;;;;21.57;26.90;97839.13;4928016;28;1012;-75
2023/03/23 01:30:58;;;;;;;;;;;;;;;21.57;27.10;97844.78;4975579;28;952;-75
2023/03/23 01:33:24;;;;;;;;;;;;;;;21.99;26.44;97842.72;4959217;28;1584;-76
2023/03/23 01:35:50;;;;;;;;;;;;;;;22.39;25.77;97845.16;4959578;28;1160;-76
2023/03/23 01:38:17;;;;;;;;;;;;;;;22.22;26.23;97850.13;4959467;28;1469;-75
2023/03/23 01:40:43;;;;;;;;;;;;;;;21.76;26.45;97846.66;4959538;28;1141;-76
2023/03/23 01:43:12;;;;;;;;;;;;;;;21.87;26.55;97845.56;4943849;28;1906;-76
2023/03/23 01:45:39;;;;;;;;;;;;;;;21.67;26.77;97848.56;4959212;28;1400;-76
2023/03/23 01:48:07;;;;;;;;;;;;;;;21.94;26.50;97845.31;4979307;28;1252;-75
2023/03/23 01:50:35;;;;;;;;;;;;;;;22.17;26.31;97849.91;4966154;28;1473;-76
2023/03/23 01:53:01;;;;;;;;;;;;;;;22.25;25.94;97851.28;4959195;28;1310;-76
2023/03/23 01:55:27;;;;;;;;;;;;;;;21.98;26.29;97857.34;4958967;28;1268;-76
2023/03/23 01:57:53;;;;;;;;;;;;;;;21.65;27.02;97857.47;4958926;28;1290;-76
2023/03/23 02:00:19;;;;;;;;;;;;;;;21.74;26.72;97856.84;4959340;28;1142;-76
2023/03/23 02:02:50;;;;;;;;;;;;;;;21.67;27.09;97849.34;4942366;28;1979;-75
2023/03/23 02:05:36;;;;;;;;;;;;;;;21.83;26.58;97860.59;4917384;29;1245;-75
2023/03/23 02:08:09;;;;;;;;;;;;;;;22.05;26.21;97845.78;4933493;29;1117;-76
2023/03/23 02:10:35;;;;;;;;;;;;;;;22.20;26.08;97852.63;4917572;29;1021;-76
2023/03/23 02:13:00;;;;;;;;;;;;;;;21.69;26.95;97852.53;4901872;29;1240;-75
2023/03/23 02:15:27;;;;;;;;;;;;;;;21.64;26.87;97853.06;4917458;29;1106;-76
2023/03/23 02:18:05;;;;;;;;;;;;;;;21.45;27.09;97848.38;4935426;29;1297;-76
2023/03/23 02:20:38;;;;;;;;;;;;;;;21.90;26.82;97855.97;4952226;28;1420;-75
2023/03/23 02:23:21;;;;;;;;;;;;;;;22.11;26.04;97852.50;4955944;28;2050;-76
2023/03/23 02:25:56;;;;;;;;;;;;;;;22.46;25.81;97861.13;4974751;28;1040;-76
2023/03/23 02:28:24;;;;;;;;;;;;;;;21.91;26.19;97851.88;4974594;28;1107;-76
2023/03/23 02:31:02;;;;;;;;;;;;;;;21.71;26.50;97850.06;4935661;29;1355;-76
2023/03/23 02:33:28;;;;;;;;;;;;;;;21.69;26.89;97858.19;4920401;29;1148;-76
2023/03/23 02:35:57;;;;;;;;;;;;;;;22.05;26.32;97862.78;4927134;29;1153;-76
2023/03/23 02:38:50;;;;;;;;;;;;;;;22.15;26.26;97861.69;4939145;29;1160;-75
2023/03/23 02:41:17;;;;;;;;;;;;;;;22.05;26.60;97862.78;4920454;29;1253;-76
2023/03/23 02:43:43;;;;;;;;;;;;;;;21.90;27.16;97861.63;4900947;29;1971;-76
2023/03/23 02:46:09;;;;;;;;;;;;;;;21.89;27.00;97863.66;4913497;29;1372;-76
2023/03/23 02:48:35;;;;;;;;;;;;;;;21.92;27.19;97867.66;4898099;29;999;-76
2023/03/23 02:51:00;;;;;;;;;;;;;;;22.23;26.84;97863.06;4883050;29;1031;-76
2023/03/23 02:53:26;;;;;;;;;;;;;;;22.14;26.97;97868.63;4882386;29;980;-76
2023/03/23 02:55:52;;;;;;;;;;;;;;;21.90;27.26;97867.28;4882943;29;1299;-75
2023/03/23 02:58:21;;;;;;;;;;;;;;;21.88;27.26;97864.91;4883179;29;1638;-75
2023/03/23 03:00:50;;;;;;;;;;;;;;;21.98;27.25;97863.00;4882452;29;1387;-76
2023/03/23 03:03:23;;;;;;;;;;;;;;;22.02;27.50;97869.34;4878679;29;1911;-76
2023/03/23 03:06:00;;;;;;;;;;;;;;;22.29;26.99;97883.94;4879466;29;1250;-76
2023/03/23 03:08:29;;;;;;;;;;;;;;;22.25;27.28;97876.78;4879343;29;1150;-75
2023/03/23 03:10:56;;;;;;;;;;;;;;;21.85;27.54;97877.94;4879322;29;1080;-76
2023/03/23 03:13:28;;;;;;;;;;;;;;;21.65;27.89;97885.81;4879403;29;1206;-75
2023/03/23 03:15:53;;;;;;;;;;;;;;;21.83;27.71;97874.75;4878893;29;1303;-75
2023/03/23 03:18:25;;;;;;;;;;;;;;;21.85;28.09;97877.94;4916063;29;1180;-75
2023/03/23 03:20:54;;;;;;;;;;;;;;;22.31;27.27;97878.59;4932755;29;959;-75
2023/03/23 03:23:21;;;;;;;;;;;;;;;21.99;27.38;97875.94;4879079;29;1903;-75
2023/03/23 03:25:47;;;;;;;;;;;;;;;21.79;28.05;97871.22;4886845;29;1014;-75
2023/03/23 03:28:21;;;;;;;;;;;;;;;21.75;27.68;97879.03;4893982;29;1262;-76
2023/03/23 03:30:49;;;;;;;;;;;;;;;21.51;28.41;97881.34;4897244;29;1473;-75
2023/03/23 03:33:15;;;;;;;;;;;;;;;22.03;27.69;97880.25;4887447;29;1141;-76
2023/03/23 03:35:40;;;;;;;;;;;;;;;22.00;27.63;97880.34;4923637;29;1276;-76
2023/03/23 03:38:07;;;;;;;;;;;;;;;22.51;26.68;97883.25;4904485;29;1287;-75
2023/03/23 03:40:33;;;;;;;;;;;;;;;22.11;27.21;97892.16;4904706;29;970;-76
2023/03/23 03:42:59;;;;;;;;;;;;;;;22.03;27.41;97887.94;4889018;29;1972;-76
2023/03/23 03:45:25;;;;;;;;;;;;;;;21.73;27.72;97875.88;4899627;29;1352;-76
2023/03/23 03:47:51;;;;;;;;;;;;;;;21.63;27.50;97885.47;4874191;29;1658;-76
2023/03/23 03:50:16;;;;;;;;;;;;;;;22.10;27.28;97888.53;4879414;29;1507;-76
2023/03/23 03:52:42;;;;;;;;;;;;;;;22.15;27.11;97890.03;4879244;29;1102;-76
2023/03/23 03:55:08;;;;;;;;;;;;;;;22.05;27.32;97897.56;4848599;29;1003;-76
2023/03/23 03:57:35;;;;;;;;;;;;;;;21.84;27.27;97893.34;4860513;29;1360;-76
2023/03/23 04:00:14;;;;;;;;;;;;;;;21.76;27.54;97891.97;4871201;29;1369;-76
2023/03/23 04:02:42;;;;;;;;;;;;;;;21.97;27.69;97890.56;4865981;29;1457;-75
2023/03/23 04:05:09;;;;;;;;;;;;;;;22.02;27.87;97894.84;4882221;29;1999;-76
2023/03/23 04:07:37;;;;;;;;;;;;;;;22.21;27.40;97898.75;4843732;29;1310;-76
2023/03/23 04:10:05;;;;;;;;;;;;;;;21.91;27.62;97897.19;4876952;29;1234;-75
2023/03/23 04:12:31;;;;;;;;;;;;;;;21.94;27.99;97896.31;4878950;29;1266;-76
2023/03/23 04:14:57;;;;;;;;;;;;;;;21.69;28.11;97899.88;4878872;29;1182;-76
2023/03/23 04:17:29;;;;;;;;;;;;;;;21.76;28.40;97897.63;4911684;29;1457;-77
2023/03/23 04:19:58;;;;;;;;;;;;;;;22.16;27.77;97908.63;4900855;29;1313;-75
2023/03/23 04:22:29;;;;;;;;;;;;;;;22.21;27.57;97905.22;4934943;29;1556;-76
2023/03/23 04:24:58;;;;;;;;;;;;;;;21.92;27.99;97904.47;4904437;29;1919;-76
2023/03/23 04:27:25;;;;;;;;;;;;;;;21.56;28.35;97908.31;4919774;29;1148;-76
2023/03/23 04:29:51;;;;;;;;;;;;;;;21.64;28.22;97906.88;4904241;29;1204;-76
2023/03/23 04:32:40;;;;;;;;;;;;;;;22.11;27.96;97912.00;4946557;29;1339;-76
2023/03/23 04:35:06;;;;;;;;;;;;;;;22.15;27.81;97915.53;4957625;29;956;-76
2023/03/23 04:37:39;;;;;;;;;;;;;;;21.97;27.79;97912.44;4962757;28;1325;-76
2023/03/23 04:40:09;;;;;;;;;;;;;;;21.55;28.67;97909.53;4997545;28;1213;-76
2023/03/23 04:42:34;;;;;;;;;;;;;;;21.42;28.73;97914.38;4965351;28;1377;-75
2023/03/23 04:45:22;;;;;;;;;;;;;;;21.88;28.51;97915.13;4983952;28;903;-75
2023/03/23 04:47:57;;;;;;;;;;;;;;;22.34;27.71;97914.53;5012606;28;1415;-75
2023/03/23 04:50:30;;;;;;;;;;;;;;;22.41;27.44;97921.22;4979971;28;1615;-76
2023/03/23 04:53:04;;;;;;;;;;;;;;;21.92;27.99;97915.81;4955691;28;1679;-76
2023/03/23 04:55:31;;;;;;;;;;;;;;;21.81;28.12;97916.09;4965492;28;1317;-76
2023/03/23 04:58:00;;;;;;;;;;;;;;;21.73;28.36;97915.50;4967987;28;1559;-76
2023/03/23 05:00:40;;;;;;;;;;;;;;;22.19;27.79;97921.91;4998125;28;1360;-75
2023/03/23 05:03:07;;;;;;;;;;;;;;;22.14;28.12;97921.66;5016473;28;1917;-75
2023/03/23 05:05:34;;;;;;;;;;;;;;;21.86;28.15;97918.38;4984038;28;1215;-75
2023/03/23 05:08:04;;;;;;;;;;;;;;;21.69;28.40;97931.81;4963864;28;1357;-75
2023/03/23 05:10:33;;;;;;;;;;;;;;;21.76;28.18;97927.97;4963942;28;1299;-75
2023/03/23 05:13:05;;;;;;;;;;;;;;;21.83;28.59;97931.41;4979389;28;1118;-76
2023/03/23 05:15:31;;;;;;;;;;;;;;;22.30;27.70;97942.19;4979648;28;1108;-76
2023/03/23 05:17:58;;;;;;;;;;;;;;;22.32;27.99;97939.69;4979415;28;1578;-75
2023/03/23 05:20:24;;;;;;;;;;;;;;;21.87;28.29;97947.53;4963106;28;1108;-76
2023/03/23 05:22:57;;;;;;;;;;;;;;;21.92;28.41;97944.94;4963809;28;1971;-76
2023/03/23 05:25:29;;;;;;;;;;;;;;;21.73;28.63;97943.84;4944422;28;1140;-75
2023/03/23 05:28:02;;;;;;;;;;;;;;;21.62;28.81;97951.84;4937129;29;1125;-75
2023/03/23 05:30:46;;;;;;;;;;;;;;;21.94;28.60;97947.31;4923809;29;948;-75
2023/03/23 05:33:14;;;;;;;;;;;;;;;22.09;28.52;97954.16;4937007;29;1147;-75
2023/03/23 05:35:47;;;;;;;;;;;;;;;22.02;27.97;97954.34;4937178;29;1149;-75
2023/03/23 05:38:14;;;;;;;;;;;;;;;21.89;28.30;97962.03;4921488;29;1282;-76
2023/03/23 05:40:41;;;;;;;;;;;;;;;21.68;28.78;97958.53;4889857;29;1530;-77
2023/03/23 05:43:27;;;;;;;;;;;;;;;22.08;28.50;97961.06;4923482;29;1906;-77
2023/03/23 05:46:11;;;;;;;;;;;;;;;22.25;27.90;97959.75;4939338;29;1109;-74
2023/03/23 05:48:38;;;;;;;;;;;;;;;22.45;27.79;97958.78;4924140;29;1288;-74
2023/03/23 05:51:08;;;;;;;;;;;;;;;21.84;28.63;97966.97;4924928;29;1033;-74
2023/03/23 05:53:38;;;;;;;;;;;;;;;21.56;28.72;97973.44;4924743;29;1212;-74
2023/03/23 05:56:03;;;;;;;;;;;;;;;21.63;28.63;97967.59;4923695;29;1266;-74
2023/03/23 05:58:58;;;;;;;;;;;;;;;21.83;28.56;97962.56;4936565;29;935;-74
2023/03/23 06:01:25;;;;;;;;;;;;;;;22.26;27.73;97969.84;4917449;29;1245;-74
2023/03/23 06:03:53;;;;;;;;;;;;;;;22.02;27.99;97971.34;4915904;29;1922;-73
2023/03/23 06:06:25;;;;;;;;;;;;;;;21.76;28.33;97976.94;4897263;29;1675;-74
2023/03/23 06:08:56;;;;;;;;;;;;;;;21.81;28.01;97979.22;4883428;29;1455;-75
2023/03/23 06:11:35;;;;;;;;;;;;;;;22.00;28.11;97979.50;4884592;29;1483;-75
2023/03/23 06:14:22;;;;;;;;;;;;;;;22.09;27.89;97982.47;4899026;29;1325;-75
2023/03/23 06:16:48;;;;;;;;;;;;;;;22.09;27.61;97982.47;4882981;29;1403;-75
2023/03/23 06:19:15;;;;;;;;;;;;;;;21.88;28.03;97983.09;4898596;29;1134;-75
2023/03/23 06:21:49;;;;;;;;;;;;;;;21.70;28.21;97984.38;4884328;29;1121;-75
2023/03/23 06:24:50;;;;;;;;;;;;;;;21.63;27.96;97984.56;4898443;29;1907;-75
2023/03/23 06:27:22;;;;;;;;;;;;;;;21.93;27.79;97985.38;4868310;29;1317;-75
2023/03/23 06:29:48;;;;;;;;;;;;;;;21.93;27.93;97988.22;4883024;29;1090;-75
2023/03/23 06:32:14;;;;;;;;;;;;;;;22.07;27.39;97987.78;4891180;29;1210;-74
2023/03/23 06:34:44;;;;;;;;;;;;;;;21.77;27.99;97989.84;4918623;28;1248;-75
2023/03/23 06:37:28;;;;;;;;;;;;;;;21.67;28.10;97990.94;4986686;28;970;-76
2023/03/23 06:40:06;;;;;;;;;;;;;;;21.59;28.03;97995.97;4981989;28;1297;-75
2023/03/23 06:42:37;;;;;;;;;;;;;;;22.15;27.32;98003.38;5005800;28;1349;-76
2023/03/23 06:45:35;;;;;;;;;;;;;;;22.05;27.57;97998.78;4964805;28;1081;-75
2023/03/23 06:48:39;;;;;;;;;;;;;;;21.69;27.93;98002.59;4898950;29;1094;-76
2023/03/23 06:51:05;;;;;;;;;;;;;;;21.66;28.01;97994.19;4886443;29;1264;-76
2023/03/23 06:53:32;;;;;;;;;;;;;;;21.66;28.01;98006.34;4889945;29;1247;-75
2023/03/23 06:55:58;;;;;;;;;;;;;;;22.09;27.56;98007.97;4884671;29;1321;-75
2023/03/23 06:58:24;;;;;;;;;;;;;;;22.17;27.20;98008.59;4886965;29;1273;-76
2023/03/23 07:00:56;;;;;;;;;;;;;;;21.85;27.63;98018.75;4887663;29;1201;-76
2023/03/23 07:03:23;;;;;;;;;;;;;;;21.71;27.52;98011.47;4903303;29;1969;-75
2023/03/23 07:05:49;;;;;;;;;;;;;;;21.53;27.81;98008.31;4887379;29;1354;-75
2023/03/23 07:08:18;;;;;;;;;;;;;;;22.02;27.37;98022.34;4889919;29;1543;-75
2023/03/23 07:10:52;;;;;;;;;;;;;;;22.25;27.12;98022.13;4893791;29;1500;-76
2023/03/23 07:13:17;;;;;;;;;;;;;;;22.21;27.00;98018.59;4907574;29;1531;-76
2023/03/23 07:15:50;;;;;;;;;;;;;;;21.74;27.57;98024.72;4882526;29;1209;-76
2023/03/23 07:18:16;;;;;;;;;;;;;;;21.64;27.65;98022.97;4901284;29;1098;-76
2023/03/23 07:20:47;;;;;;;;;;;;;;;21.59;27.84;98023.50;4953150;28;1156;-76
2023/03/23 07:23:14;;;;;;;;;;;;;;;21.96;27.44;98026.97;4982611;28;2221;-76
2023/03/23 07:25:44;;;;;;;;;;;;;;;21.82;27.65;98031.78;4978011;28;1142;-75
2023/03/23 07:28:16;;;;;;;;;;;;;;;22.00;27.29;98031.28;4978000;28;1678;-76
2023/03/23 07:30:41;;;;;;;;;;;;;;;21.90;27.39;98034.41;4980670;28;1203;-76
2023/03/23 07:33:09;;;;;;;;;;;;;;;21.56;27.61;98032.91;4965180;28;1353;-75
2023/03/23 07:35:36;;;;;;;;;;;;;;;21.59;27.60;98034.81;4964759;28;1276;-76
2023/03/23 07:38:04;;;;;;;;;;;;;;;21.75;27.81;98036.84;4949180;28;1228;-75
2023/03/23 07:40:33;;;;;;;;;;;;;;;22.12;27.26;98032.59;4964930;28;1136;-75
2023/03/23 07:43:03;;;;;;;;;;;;;;;22.05;26.96;98032.78;4965652;28;1898;-75
2023/03/23 07:45:55;;;;;;;;;;;;;;;21.79;27.38;98031.88;4958009;28;1134;-75
2023/03/23 07:48:24;;;;;;;;;;;;;;;21.51;27.83;98033.44;4926855;29;1241;-75
2023/03/23 07:50:51;;;;;;;;;;;;;;;21.56;28.01;98030.06;4977390;28;1211;-75
2023/03/23 07:53:17;;;;;;;;;;;;;;;22.02;27.42;98039.34;4977448;28;1243;-76
2023/03/23 07:55:49;;;;;;;;;;;;;;;22.08;27.22;98043.25;4946086;28;1291;-75
2023/03/23 07:58:44;;;;;;;;;;;;;;;22.01;27.21;98041.38;4919855;29;967;-76
2023/03/23 08:01:10;;;;;;;;;;;;;;;21.52;28.07;98041.47;4919537;29;1397;-76
2023/03/23 08:03:37;;;;;;;;;;;;;;;21.57;27.90;98042.97;4903302;29;1899;-76
2023/03/23 08:06:21;;;;;;;;;;;;;;;21.92;27.39;98046.13;4919477;29;770;-76
2023/03/23 08:09:08;;;;;;;;;;;;;;;22.00;27.28;98044.66;4881523;29;1062;-76
2023/03/23 08:11:54;;;;;;;;;;;;;;;22.38;26.56;98038.34;4868830;29;1086;-75
2023/03/23 08:14:45;;;;;;;;;;;;;;;22.02;27.00;98040.16;4869489;29;1230;-76
2023/03/23 08:17:31;;;;;;;;;;;;;;;21.70;27.56;98046.66;4875756;29;996;-75
2023/03/23 08:20:19;;;;;;;;;;;;;;;21.84;27.29;98049.13;4864646;29;1106;-75
2023/03/23 08:23:06;;;;;;;;;;;;;;;21.94;27.23;98049.28;4849919;29;1907;-76
2023/03/23 08:25:41;;;;;;;;;;;;;;;22.26;26.83;98052.06;4863733;29;1057;-76
2023/03/23 08:28:39;;;;;;;;;;;;;;;22.08;26.89;98049.69;4797199;29;1213;-76
2023/03/23 08:31:23;;;;;;;;;;;;;;;21.87;27.16;98060.81;4808470;29;1018;-75
2023/03/23 08:33:51;;;;;;;;;;;;;;;21.66;27.36;98054.47;4808375;29;926;-75
2023/03/23 08:36:37;;;;;;;;;;;;;;;21.78;27.46;98053.75;4808078;29;1182;-75
2023/03/23 08:39:29;;;;;;;;;;;;;;;22.03;27.24;98057.94;4807990;29;1128;-75
2023/03/23 08:41:55;;;;;;;;;;;;;;;22.09;26.95;98061.81;4789234;30;1119;-75
2023/03/23 08:44:40;;;;;;;;;;;;;;;21.85;27.12;98053.53;4789776;30;1912;-76
2023/03/23 08:47:35;;;;;;;;;;;;;;;21.56;27.34;98064.84;4747742;30;1064;-75
2023/03/23 08:50:36;;;;;;;;;;;;;;;21.49;27.96;98064.22;4764713;30;1075;-75
2023/03/23 08:53:20;;;;;;;;;;;;;;;22.05;27.16;98061.91;4771812;30;971;-75
2023/03/23 08:55:46;;;;;;;;;;;;;;;22.16;26.85;98067.31;4771641;30;998;-75
2023/03/23 08:58:36;;;;;;;;;;;;;;;22.05;26.84;98078.13;4801565;29;1044;-76
2023/03/23 09:01:19;;;;;;;;;;;;;;;21.68;27.56;98065.34;4802515;29;1030;-75
2023/03/23 09:04:14;;;;;;;;;;;;;;;21.48;27.68;98074.75;4780943;30;1911;-75
2023/03/23 09:07:14;;;;;;;;;;;;;;;21.77;27.66;98063.50;4780164;29;1403;-75
2023/03/23 09:09:40;;;;;;;;;;;;;;;22.07;27.06;98055.78;4789451;29;1083;-76
2023/03/23 09:12:06;;;;;;;;;;;;;;;22.14;26.83;98061.31;4789320;29;1106;-77
2023/03/23 09:14:32;;;;;;;;;;;;;;;21.78;27.06;98056.56;4792479;29;947;-77
2023/03/23 09:16:57;;;;;;;;;;;;;;;21.84;27.18;98060.47;4807971;29;1025;-76
2023/03/23 09:19:23;;;;;;;;;;;;;;;21.52;27.59;98060.50;4807502;29;982;-76
2023/03/23 09:21:48;;;;;;;;;;;;;;;21.73;27.57;98050.66;4807583;29;1290;-77
2023/03/23 09:24:14;;;;;;;;;;;;;;;21.83;27.13;98050.38;4831138;29;1992;-76
2023/03/23 09:26:40;;;;;;;;;;;;;;;21.93;27.00;98057.00;4847211;29;987;-77
2023/03/23 09:29:06;;;;;;;;;;;;;;;21.82;26.83;98048.78;4862434;29;996;-76
2023/03/23 09:31:31;;;;;;;;;;;;;;;21.74;27.20;98057.91;4846125;29;1091;-76
2023/03/23 09:33:58;;;;;;;;;;;;;;;21.39;27.54;98053.94;4876551;29;1011;-76
2023/03/23 09:36:25;;;;;;;;;;;;;;;21.70;27.71;98060.81;4940178;29;1318;-77
2023/03/23 09:38:52;;;;;;;;;;;;;;;21.94;26.81;98060.63;4940791;29;994;-76
2023/03/23 09:41:32;;;;;;;;;;;;;;;22.15;26.80;98062.91;4924527;29;1018;-76
2023/03/23 09:44:16;;;;;;;;;;;;;;;22.25;26.26;98058.19;4956149;29;1914;-77
2023/03/23 09:46:48;;;;;;;;;;;;;;;21.77;26.85;98057.03;4956493;29;1105;-73
2023/03/23 09:49:24;;;;;;;;;;;;;;;21.76;26.83;98056.25;4937074;29;935;-73
2023/03/23 09:51:51;;;;;;;;;;;;;;;21.92;27.22;98057.44;4936822;29;1006;-75
2023/03/23 09:54:20;;;;;;;;;;;;;;;22.14;26.79;98057.69;4937027;29;982;-74
2023/03/23 09:56:46;;;;;;;;;;;;;;;22.22;26.36;98059.06;4921132;29;1018;-73
2023/03/23 09:59:17;;;;;;;;;;;;;;;21.89;26.63;98058.34;4936743;29;960;-74
2023/03/23 10:01:44;;;;;;;;;;;;;;;21.79;26.78;98055.34;4921349;29;948;-74
2023/03/23 10:04:10;;;;;;;;;;;;;;;21.43;27.48;98054.66;4920724;29;1924;-75
2023/03/23 10:06:36;;;;;;;;;;;;;;;21.84;27.27;98051.97;4937005;29;972;-73
2023/03/23 10:09:01;;;;;;;;;;;;;;;21.92;26.81;98049.75;4920931;29;1086;-73
2023/03/23 10:11:37;;;;;;;;;;;;;;;22.09;26.55;98053.31;4920785;29;937;-74
2023/03/23 10:14:06;;;;;;;;;;;;;;;21.72;27.22;98049.88;4936657;29;998;-74
2023/03/23 10:16:33;;;;;;;;;;;;;;;21.66;26.90;98040.31;4918001;29;1917;-74
2023/03/23 10:19:31;;;;;;;;;;;;;;;21.67;26.94;98047.56;4939765;29;1124;-73
2023/03/23 10:22:00;;;;;;;;;;;;;;;21.95;26.87;98053.72;4936483;29;996;-74
2023/03/23 10:24:32;;;;;;;;;;;;;;;22.07;26.78;98050.94;4920440;29;1902;-73
2023/03/23 10:26:58;;;;;;;;;;;;;;;22.14;26.69;98049.19;4920287;29;1265;-74
2023/03/23 10:29:51;;;;;;;;;;;;;;;21.79;26.74;98043.22;4936293;29;1005;-73
2023/03/23 10:32:17;;;;;;;;;;;;;;;21.80;26.70;98051.25;4879611;29;1035;-74
2023/03/23 10:34:56;;;;;;;;;;;;;;;21.73;27.52;98051.44;4864313;29;1146;-74
2023/03/23 10:37:36;;;;;;;;;;;;;;;21.91;27.08;98044.50;4879714;29;979;-74
2023/03/23 10:40:03;;;;;;;;;;;;;;;22.11;26.66;98048.03;4879940;29;1082;-74
2023/03/23 10:42:32;;;;;;;;;;;;;;;22.25;26.60;98050.47;4879723;29;1064;-74
2023/03/23 10:44:59;;;;;;;;;;;;;;;22.22;26.54;98054.19;4879818;29;1980;-73
2023/03/23 10:47:24;;;;;;;;;;;;;;;21.81;26.63;98041.53;4864035;29;1172;-73
2023/03/23 10:49:54;;;;;;;;;;;;;;;21.81;26.73;98041.53;4863878;29;1131;-74
2023/03/23 10:52:29;;;;;;;;;;;;;;;21.72;26.60;98044.19;4829879;29;1167;-74
2023/03/23 10:54:56;;;;;;;;;;;;;;;21.95;26.78;98045.22;4858987;29;1297;-75
2023/03/23 10:57:21;;;;;;;;;;;;;;;22.09;26.64;98044.81;4889447;29;1312;-74
2023/03/23 10:59:47;;;;;;;;;;;;;;;22.18;26.49;98047.06;4909420;29;1220;-75
2023/03/23 11:02:19;;;;;;;;;;;;;;;21.81;26.90;98046.38;4912075;29;1220;-75
2023/03/23 11:04:58;;;;;;;;;;;;;;;21.72;26.85;98032.88;4893349;29;1990;-75
2023/03/23 11:07:25;;;;;;;;;;;;;;;21.72;26.72;98030.03;4909202;29;1248;-75
2023/03/23 11:09:52;;;;;;;;;;;;;;;21.98;26.52;98035.84;4940998;28;1253;-75
2023/03/23 11:12:17;;;;;;;;;;;;;;;22.19;26.32;98035.25;4966107;28;1307;-75
2023/03/23 11:14:44;;;;;;;;;;;;;;;22.40;26.03;98033.06;4967624;28;1324;-74
2023/03/23 11:17:24;;;;;;;;;;;;;;;21.88;26.72;98019.91;4975804;28;1238;-75
2023/03/23 11:19:49;;;;;;;;;;;;;;;21.54;27.18;98015.53;4977213;28;902;-76
2023/03/23 11:22:17;;;;;;;;;;;;;;;21.55;27.63;98019.97;4979721;28;1033;-76
2023/03/23 11:24:43;;;;;;;;;;;;;;;22.09;26.42;98011.63;5001299;28;1994;-75
2023/03/23 11:27:09;;;;;;;;;;;;;;;22.03;26.57;98018.28;5001608;28;767;-75
2023/03/23 11:29:34;;;;;;;;;;;;;;;21.74;26.83;98013.38;4995845;28;1222;-75
2023/03/23 11:32:00;;;;;;;;;;;;;;;21.91;26.64;98016.97;5000975;28;1253;-75
2023/03/23 11:34:36;;;;;;;;;;;;;;;21.62;26.88;98016.16;5035697;28;1027;-75
2023/03/23 11:37:24;;;;;;;;;;;;;;;21.74;27.40;98013.38;5017656;28;998;-75
2023/03/23 11:39:59;;;;;;;;;;;;;;;22.03;26.42;98018.28;5008946;28;1076;-74
2023/03/23 11:42:31;;;;;;;;;;;;;;;22.11;26.37;98014.03;5005101;28;1257;-75
2023/03/23 11:45:17;;;;;;;;;;;;;;;21.82;26.55;98020.47;5023715;28;1996;-75
2023/03/23 11:47:49;;;;;;;;;;;;;;;21.79;26.74;98015.69;5030522;28;1128;-75
2023/03/23 11:50:16;;;;;;;;;;;;;;;21.83;26.40;98016.38;5035056;28;1143;-73
2023/03/23 11:52:47;;;;;;;;;;;;;;;21.90;27.07;98018.22;5017643;28;956;-74
2023/03/23 11:55:14;;;;;;;;;;;;;;;21.89;26.56;98018.66;5004558;28;921;-75
2023/03/23 11:57:40;;;;;;;;;;;;;;;22.24;26.23;98017.69;5021270;28;899;-75
2023/03/23 12:00:15;;;;;;;;;;;;;;;21.89;26.58;98013.00;5021547;28;972;-75
2023/03/23 12:02:58;;;;;;;;;;;;;;;21.75;26.69;98017.81;5004375;28;1263;-75
2023/03/23 12:05:49;;;;;;;;;;;;;;;21.96;26.64;98013.59;5023583;28;922;-76
2023/03/23 12:08:17;;;;;;;;;;;;;;;21.90;26.78;98012.56;5020936;28;957;-76
2023/03/23 12:11:05;;;;;;;;;;;;;;;22.09;26.55;98003.09;5038313;28;968;-76
2023/03/23 12:13:53;;;;;;;;;;;;;;;21.83;26.58;98007.88;4980295;28;1082;-76
2023/03/23 12:16:27;;;;;;;;;;;;;;;21.78;26.44;97996.31;4980534;28;1120;-76
2023/03/23 12:18:57;;;;;;;;;;;;;;;21.57;26.84;97992.03;4996662;28;1037;-76
2023/03/23 12:21:30;;;;;;;;;;;;;;;22.11;26.33;97997.03;4957777;28;1120;-76
2023/03/23 12:24:03;;;;;;;;;;;;;;;22.10;26.41;97995.41;4941438;29;1911;-76
2023/03/23 12:26:30;;;;;;;;;;;;;;;22.26;26.00;97998.19;4941802;29;1156;-76
2023/03/23 12:28:56;;;;;;;;;;;;;;;21.66;26.86;97989.34;4919231;29;1245;-76
2023/03/23 12:31:40;;;;;;;;;;;;;;;21.70;26.69;97989.22;4919635;29;1048;-75
2023/03/23 12:34:24;;;;;;;;;;;;;;;21.59;26.93;97989.53;4903557;29;1199;-76
2023/03/23 12:36:52;;;;;;;;;;;;;;;21.74;26.87;97987.91;4903941;29;1191;-75
2023/03/23 12:39:36;;;;;;;;;;;;;;;21.96;26.52;97985.25;4919177;29;985;-75
2023/03/23 12:42:02;;;;;;;;;;;;;;;21.98;26.85;97982.00;4919121;29;950;-76
2023/03/23 12:44:30;;;;;;;;;;;;;;;21.93;26.64;97986.19;4918894;29;1919;-75
2023/03/23 12:47:15;;;;;;;;;;;;;;;21.87;26.42;97975.84;4900237;29;1169;-76
2023/03/23 12:49:44;;;;;;;;;;;;;;;21.65;27.30;97982.06;4900304;29;1029;-76
2023/03/23 12:52:11;;;;;;;;;;;;;;;21.91;26.68;97970.84;4884571;29;991;-75
2023/03/23 12:54:51;;;;;;;;;;;;;;;22.12;26.52;97975.94;4900010;29;1007;-75
2023/03/23 12:57:22;;;;;;;;;;;;;;;21.95;26.42;97980.06;4900193;29;958;-76
2023/03/23 12:59:49;;;;;;;;;;;;;;;21.79;26.64;97976.03;4918537;29;982;-76
2023/03/23 13:02:25;;;;;;;;;;;;;;;21.55;26.90;97980.31;4938213;29;980;-75
2023/03/23 13:04:52;;;;;;;;;;;;;;;21.85;26.76;97979.09;4937900;29;1993;-75
2023/03/23 13:07:20;;;;;;;;;;;;;;;22.16;26.44;97970.16;4975017;28;986;-76
2023/03/23 13:10:01;;;;;;;;;;;;;;;22.12;26.30;97975.94;4963402;28;899;-75
2023/03/23 13:12:27;;;;;;;;;;;;;;;21.64;26.80;97974.03;4979334;28;1019;-75
2023/03/23 13:15:11;;;;;;;;;;;;;;;21.73;26.97;97966.50;4979267;28;1015;-76
2023/03/23 13:17:40;;;;;;;;;;;;;;;21.61;27.03;97970.06;5010777;28;938;-76
2023/03/23 13:20:16;;;;;;;;;;;;;;;21.95;26.87;97965.88;5019270;28;1013;-76